createdAt,value
2017-05-23T00:00:05.749Z,44.1
2017-05-23T00:02:05.615Z,44.1
2017-05-23T00:04:05.912Z,44.1
2017-05-23T00:06:05.966Z,44.1
2017-05-23T00:08:05.295Z,44.1
2017-05-23T00:10:07.538Z,44.1
2017-05-23T00:12:10.548Z,44.1
2017-05-23T00:14:05.251Z,44.1
2017-05-23T00:16:06.027Z,44.1
2017-05-23T00:18:05.965Z,44
2017-05-23T00:20:05.625Z,44
2017-05-23T00:22:05.339Z,44
2017-05-23T00:24:05.219Z,44.1
2017-05-23T00:26:13.489Z,44
2017-05-23T00:28:07.674Z,44
2017-05-23T00:30:05.466Z,44
2017-05-23T00:32:05.694Z,44
2017-05-23T00:34:05.442Z,44
2017-05-23T00:36:05.217Z,43.9
2017-05-23T00:38:13.494Z,44
2017-05-23T00:40:08.432Z,44
2017-05-23T00:42:05.191Z,44
2017-05-23T00:44:06.028Z,43.9
2017-05-23T00:46:05.756Z,44
2017-05-23T00:48:05.650Z,44
2017-05-23T00:50:05.946Z,43.9
2017-05-23T00:52:05.615Z,43.9
2017-05-23T00:54:05.343Z,43.9
2017-05-23T00:56:05.218Z,43.9
2017-05-23T00:58:05.875Z,43.9
2017-05-23T01:00:05.685Z,43.9
2017-05-23T01:02:05.363Z,43.9
2017-05-23T01:04:08.117Z,43.9
2017-05-23T01:06:05.929Z,43.9
2017-05-23T01:08:10.674Z,43.9
2017-05-23T01:10:06.010Z,43.9
2017-05-23T01:12:06.031Z,43.9
2017-05-23T01:14:08.283Z,43.9
2017-05-23T01:16:06.025Z,43.9
2017-05-23T01:18:13.703Z,44.1
2017-05-23T01:20:08.468Z,44.1
2017-05-23T01:22:07.705Z,44.1
2017-05-23T01:24:05.421Z,44.1
2017-05-23T01:26:10.188Z,44.1
2017-05-23T01:28:05.916Z,44.1
2017-05-23T01:30:13.201Z,44.1
2017-05-23T01:32:05.472Z,44.1
2017-05-23T01:34:07.692Z,44.1
2017-05-23T01:36:05.661Z,44.1
2017-05-23T01:38:05.359Z,44.1
2017-05-23T01:40:05.077Z,44
2017-05-23T01:42:13.351Z,44.1
2017-05-23T01:44:07.756Z,44.1
2017-05-23T01:46:05.443Z,44.1
2017-05-23T01:48:05.232Z,44
2017-05-23T01:50:05.969Z,44
2017-05-23T01:52:05.757Z,44.1
2017-05-23T01:54:05.812Z,44
2017-05-23T01:56:05.560Z,44.1
2017-05-23T01:58:05.316Z,44.1
2017-05-23T02:00:07.753Z,44.2
2017-05-23T02:02:10.505Z,44.1
2017-05-23T02:04:05.225Z,44.1
2017-05-23T02:06:05.663Z,44.2
2017-05-23T02:08:08.008Z,44.2
2017-05-23T02:10:05.226Z,44.2
2017-05-23T02:12:08.455Z,44.1
2017-05-23T02:14:07.703Z,44.2
2017-05-23T02:16:05.717Z,44.1
2017-05-23T02:18:05.745Z,44.2
2017-05-23T02:20:05.511Z,44.2
2017-05-23T02:22:05.151Z,44.2
2017-05-23T02:24:08.451Z,44.2
2017-05-23T02:26:07.685Z,44.2
2017-05-23T02:28:05.366Z,44.2
2017-05-23T02:30:05.081Z,44.2
2017-05-23T02:32:08.511Z,44.2
2017-05-23T02:34:05.215Z,44.2
2017-05-23T02:36:08.459Z,44.2
2017-05-23T02:38:05.125Z,44.2
2017-05-23T02:40:10.910Z,44.2
2017-05-23T02:42:05.627Z,44.2
2017-05-23T02:44:05.362Z,44.2
2017-05-23T02:46:07.590Z,44.2
2017-05-23T02:48:05.490Z,44.2
2017-05-23T02:50:07.722Z,44.2
2017-05-23T02:52:05.557Z,44.2
2017-05-23T02:54:05.341Z,44.2
2017-05-23T02:56:05.039Z,44.3
2017-05-23T02:58:08.261Z,44.1
2017-05-23T03:00:06.123Z,44.2
2017-05-23T03:02:13.354Z,44.1
2017-05-23T03:04:05.132Z,44.1
2017-05-23T03:06:08.447Z,44.2
2017-05-23T03:08:07.716Z,44.2
2017-05-23T03:10:05.544Z,44.2
2017-05-23T03:12:05.220Z,44.2
2017-05-23T03:14:05.932Z,44.2
2017-05-23T03:16:08.166Z,44.2
2017-05-23T03:18:05.485Z,44.2
2017-05-23T03:20:05.398Z,44.2
2017-05-23T03:22:05.085Z,44.1
2017-05-23T03:24:06.010Z,44.1
2017-05-23T03:26:05.714Z,44.2
2017-05-23T03:28:05.431Z,44.1
2017-05-23T03:30:05.219Z,44.1
2017-05-23T03:32:08.511Z,44.1
2017-05-23T03:34:05.227Z,44.1
2017-05-23T03:36:06.084Z,44.1
2017-05-23T03:38:10.400Z,44.1
2017-05-23T03:40:05.073Z,44.1
2017-05-23T03:42:05.780Z,44.1
2017-05-23T03:44:05.451Z,44.2
2017-05-23T03:46:05.139Z,44.1
2017-05-23T03:48:06.233Z,44.1
2017-05-23T03:50:05.964Z,44.1
2017-05-23T03:52:07.755Z,44
2017-05-23T03:54:05.606Z,44
2017-05-23T03:56:07.820Z,44
2017-05-23T03:58:05.593Z,44
2017-05-23T04:00:08.069Z,44.1
2017-05-23T04:02:05.758Z,44.1
2017-05-23T04:04:06.014Z,44
2017-05-23T04:06:05.951Z,44
2017-05-23T04:08:06.161Z,44.3
2017-05-23T04:10:05.858Z,44
2017-05-23T04:12:05.606Z,44
2017-05-23T04:14:05.339Z,44
2017-05-23T04:16:05.052Z,44
2017-05-23T04:18:05.310Z,44
2017-05-23T04:20:07.522Z,44.2
2017-05-23T04:22:05.268Z,44
2017-05-23T04:24:06.174Z,44.2
2017-05-23T04:26:05.877Z,44.2
2017-05-23T04:28:05.583Z,44.1
2017-05-23T04:30:10.621Z,44
2017-05-23T04:32:12.906Z,43.9
2017-05-23T04:34:05.119Z,43.9
2017-05-23T04:36:05.992Z,43.9
2017-05-23T04:38:05.208Z,44.1
2017-05-23T04:40:06.255Z,44
2017-05-23T04:42:16.507Z,44.3
2017-05-23T04:44:05.607Z,44.3
2017-05-23T04:46:05.925Z,44.3
2017-05-23T04:48:05.709Z,44.2
2017-05-23T04:50:05.587Z,44.2
2017-05-23T04:52:05.290Z,44.1
2017-05-23T04:54:06.048Z,44.4
2017-05-23T04:56:05.875Z,44.5
2017-05-23T04:58:05.551Z,44.4
2017-05-23T05:00:10.508Z,44.6
2017-05-23T05:02:05.256Z,44.7
2017-05-23T05:04:05.918Z,44.8
2017-05-23T05:06:07.692Z,44.9
2017-05-23T05:08:07.938Z,45.1
2017-05-23T05:10:05.228Z,45
2017-05-23T05:12:06.194Z,45.3
2017-05-23T05:14:16.037Z,45.5
2017-05-23T05:16:05.765Z,45.5
2017-05-23T05:18:05.796Z,45.5
2017-05-23T05:20:08.567Z,46.1
2017-05-23T05:22:05.571Z,46.1
2017-05-23T05:24:08.353Z,46.1
2017-05-23T05:26:05.294Z,46.1
2017-05-23T05:28:06.036Z,46.1
2017-05-23T05:30:07.162Z,46.1
2017-05-23T05:32:05.888Z,46.2
2017-05-23T05:34:07.846Z,46.2
2017-05-23T05:36:11.108Z,46
2017-05-23T05:38:06.367Z,45.9
2017-05-23T05:40:05.077Z,45.9
2017-05-23T05:42:11.268Z,45.9
2017-05-23T05:44:08.683Z,45.8
2017-05-23T05:46:07.352Z,45.8
2017-05-23T05:48:05.134Z,45.8
2017-05-23T05:50:05.784Z,45.5
2017-05-23T05:52:05.005Z,45.6
2017-05-23T05:54:08.302Z,45.5
2017-05-23T05:56:05.978Z,45.5
2017-05-23T05:58:08.220Z,45.4
2017-05-23T06:00:06.304Z,45.4
2017-05-23T06:02:05.685Z,45.3
2017-05-23T06:04:05.387Z,45.3
2017-05-23T06:06:07.659Z,45.3
2017-05-23T06:08:05.391Z,45.3
2017-05-23T06:10:10.183Z,45.3
2017-05-23T06:12:08.499Z,45.2
2017-05-23T06:14:05.228Z,45.2
2017-05-23T06:16:11.166Z,45.1
2017-05-23T06:18:05.268Z,45.1
2017-05-23T06:20:10.269Z,45
2017-05-23T06:22:05.420Z,45
2017-05-23T06:24:05.473Z,45
2017-05-23T06:26:07.724Z,44.8
2017-05-23T06:28:06.444Z,44.8
2017-05-23T06:30:05.187Z,44.8
2017-05-23T06:32:05.460Z,44.8
2017-05-23T06:34:06.077Z,44.7
2017-05-23T06:36:08.164Z,44.9
2017-05-23T06:38:05.836Z,44.6
2017-05-23T06:40:05.232Z,44.6
2017-05-23T06:42:06.958Z,44.6
2017-05-23T06:44:05.625Z,44.8
2017-05-23T06:46:10.640Z,44.7
2017-05-23T06:48:06.208Z,44.7
2017-05-23T06:50:05.899Z,44.6
2017-05-23T06:52:05.702Z,44.7
2017-05-23T06:54:08.670Z,44.7
2017-05-23T06:56:05.383Z,44.8
2017-05-23T06:58:05.163Z,44.7
2017-05-23T07:00:11.308Z,44.6
2017-05-23T07:02:07.557Z,44.7
2017-05-23T07:04:05.335Z,44.6
2017-05-23T07:06:05.617Z,44.6
2017-05-23T07:08:05.944Z,44.7
2017-05-23T07:10:05.615Z,44.8
2017-05-23T07:12:05.994Z,44.7
2017-05-23T07:14:05.723Z,44.8
2017-05-23T07:16:05.418Z,44.8
2017-05-23T07:18:11.329Z,44.7
2017-05-23T07:20:05.062Z,44.7
2017-05-23T07:22:13.433Z,44.7
2017-05-23T07:24:05.320Z,44.7
2017-05-23T07:26:08.060Z,44.9
2017-05-23T07:28:10.849Z,44.9
2017-05-23T07:30:05.665Z,44.8
2017-05-23T07:32:05.833Z,44.8
2017-05-23T07:34:08.058Z,44.8
2017-05-23T07:36:05.737Z,44.8
2017-05-23T07:38:11.015Z,44.7
2017-05-23T07:40:10.819Z,44.7
2017-05-23T07:42:07.940Z,44.7
2017-05-23T07:44:05.731Z,44.7
2017-05-23T07:46:09.163Z,44.9
2017-05-23T07:48:05.594Z,44.9
2017-05-23T07:50:05.675Z,44.8
2017-05-23T07:52:05.355Z,44.8
2017-05-23T07:54:11.068Z,44.7
2017-05-23T07:56:05.868Z,44.7
2017-05-23T07:58:05.548Z,44.7
2017-05-23T08:00:05.369Z,44.9
2017-05-23T08:02:05.147Z,44.7
2017-05-23T08:04:08.667Z,44.9
2017-05-23T08:06:05.563Z,44.7
2017-05-23T08:08:05.807Z,44.9
2017-05-23T08:10:10.123Z,44.8
2017-05-23T08:12:05.770Z,44.8
2017-05-23T08:14:05.913Z,44.9
2017-05-23T08:16:08.211Z,45
2017-05-23T08:18:06.663Z,45
2017-05-23T08:20:05.905Z,45
2017-05-23T08:22:10.852Z,45
2017-05-23T08:24:05.503Z,45
2017-05-23T08:26:05.174Z,45
2017-05-23T08:28:05.283Z,44.9
2017-05-23T08:30:06.054Z,44.9
2017-05-23T08:32:08.587Z,44.9
2017-05-23T08:34:05.242Z,45
2017-05-23T08:36:06.001Z,44.9
2017-05-23T08:38:06.004Z,44.9
2017-05-23T08:40:05.878Z,45.1
2017-05-23T08:42:05.576Z,45.1
2017-05-23T08:44:05.335Z,45.1
2017-05-23T08:46:10.097Z,45
2017-05-23T08:48:06.841Z,45.1
2017-05-23T08:50:06.535Z,45.1
2017-05-23T08:52:05.244Z,45
2017-05-23T08:54:10.541Z,45
2017-05-23T08:56:05.630Z,45
2017-05-23T08:58:07.890Z,45
2017-05-23T09:00:05.483Z,45
2017-05-23T09:02:05.172Z,45
2017-05-23T09:04:05.884Z,45.1
2017-05-23T09:06:05.819Z,45
2017-05-23T09:08:05.477Z,45
2017-05-23T09:10:05.245Z,44.8
2017-05-23T09:12:05.190Z,44.9
2017-05-23T09:14:06.806Z,44.8
2017-05-23T09:16:06.766Z,44.9
2017-05-23T09:18:08.634Z,44.9
2017-05-23T09:20:05.591Z,44.9
2017-05-23T09:22:05.693Z,44.8
2017-05-23T09:24:13.634Z,44.8
2017-05-23T09:26:05.883Z,44.8
2017-05-23T09:28:10.345Z,44.8
2017-05-23T09:30:05.216Z,44.8
2017-05-23T09:32:06.161Z,44.9
2017-05-23T09:34:05.834Z,44.7
2017-05-23T09:36:05.744Z,44.8
2017-05-23T09:38:05.465Z,44.8
2017-05-23T09:40:05.781Z,44.8
2017-05-23T09:42:05.895Z,44.8
2017-05-23T09:44:05.689Z,44.8
2017-05-23T09:46:05.397Z,44.8
2017-05-23T09:48:05.093Z,44.7
2017-05-23T09:50:05.557Z,44.6
2017-05-23T09:52:05.508Z,44.7
2017-05-23T09:54:05.592Z,44.7
2017-05-23T09:56:08.024Z,44.4
2017-05-23T09:58:05.202Z,44.4
2017-05-23T10:00:08.636Z,44.5
2017-05-23T10:02:05.587Z,44.4
2017-05-23T10:04:05.293Z,44.5
2017-05-23T10:06:05.152Z,44.4
2017-05-23T10:08:06.092Z,44.5
2017-05-23T10:10:08.396Z,44.5
2017-05-23T10:12:08.059Z,44.5
2017-05-23T10:14:05.783Z,44.5
2017-05-23T10:16:05.692Z,44.5
2017-05-23T10:18:05.736Z,44.5
2017-05-23T10:20:08.208Z,44.4
2017-05-23T10:22:06.250Z,44.4
2017-05-23T10:24:05.299Z,44.5
2017-05-23T10:26:05.978Z,44.5
2017-05-23T10:28:05.670Z,44.5
2017-05-23T10:30:08.330Z,44.4
2017-05-23T10:32:05.716Z,44.3
2017-05-23T10:34:05.658Z,44.3
2017-05-23T10:36:05.630Z,44.3
2017-05-23T10:38:05.437Z,44.1
2017-05-23T10:40:05.377Z,44.1
2017-05-23T10:42:05.253Z,44.1
2017-05-23T10:44:07.858Z,44
2017-05-23T10:46:05.556Z,44
2017-05-23T10:48:05.503Z,44
2017-05-23T10:50:05.410Z,43.9
2017-05-23T10:52:05.569Z,43.9
2017-05-23T10:54:05.455Z,44
2017-05-23T10:56:05.403Z,44
2017-05-23T10:58:05.703Z,44
2017-05-23T11:00:06.456Z,44
2017-05-23T11:02:05.136Z,43.9
2017-05-23T11:04:10.898Z,44
2017-05-23T11:06:05.640Z,44
2017-05-23T11:08:05.321Z,44.1
2017-05-23T11:10:07.751Z,44.1
2017-05-23T11:12:13.478Z,44
2017-05-23T11:14:05.190Z,44
2017-05-23T11:16:06.059Z,44.1
2017-05-23T11:18:06.091Z,44
2017-05-23T11:20:05.133Z,43.7
2017-05-23T11:22:05.170Z,43.7
2017-05-23T11:24:06.000Z,43.6
2017-05-23T11:26:05.895Z,43.7
2017-05-23T11:28:05.680Z,43.7
2017-05-23T11:30:10.498Z,43.8
2017-05-23T11:32:07.782Z,43.8
2017-05-23T11:34:05.872Z,43.8
2017-05-23T11:36:06.228Z,43.9
2017-05-23T11:38:05.805Z,43.9
2017-05-23T11:40:05.463Z,43.9
2017-05-23T11:42:06.180Z,43.9
2017-05-23T11:44:05.910Z,43.9
2017-05-23T11:46:05.601Z,43.9
2017-05-23T11:48:08.293Z,43.9
2017-05-23T11:50:05.584Z,43.9
2017-05-23T11:52:05.672Z,44
2017-05-23T11:54:05.635Z,43.9
2017-05-23T11:56:07.685Z,43.9
2017-05-23T11:58:05.457Z,43.8
2017-05-23T12:00:08.354Z,43.8
2017-05-23T12:02:05.109Z,43.8
2017-05-23T12:04:08.323Z,43.8
2017-05-23T12:06:05.174Z,43.8
2017-05-23T12:08:05.906Z,43.8
2017-05-23T12:10:06.152Z,43.6
2017-05-23T12:12:06.022Z,43.8
2017-05-23T12:14:05.180Z,43.6
2017-05-23T12:16:05.825Z,43.8
2017-05-23T12:18:12.968Z,43.5
2017-05-23T12:20:05.858Z,43.5
2017-05-23T12:22:06.847Z,43.5
2017-05-23T12:24:08.755Z,43.4
2017-05-23T12:26:05.197Z,43.4
2017-05-23T12:28:08.071Z,43.5
2017-05-23T12:30:05.224Z,43.4
2017-05-23T12:32:06.261Z,43.6
2017-05-23T12:34:05.150Z,43.6
2017-05-23T12:36:08.566Z,43.5
2017-05-23T12:38:05.488Z,43.5
2017-05-23T12:40:15.691Z,43.6
2017-05-23T12:42:07.925Z,43.6
2017-05-23T12:44:13.398Z,43.5
2017-05-23T12:46:05.174Z,43.5
2017-05-23T12:48:08.487Z,43.6
2017-05-23T12:50:07.762Z,43.7
2017-05-23T12:52:07.992Z,43.7
2017-05-23T12:54:10.780Z,43.8
2017-05-23T12:56:06.264Z,43.8
2017-05-23T12:58:05.969Z,43.8
2017-05-23T13:00:05.899Z,44
2017-05-23T13:02:08.159Z,44.1
2017-05-23T13:04:08.827Z,44.1
2017-05-23T13:06:06.156Z,44.3
2017-05-23T13:08:05.370Z,44.4
2017-05-23T13:10:05.431Z,44.3
2017-05-23T13:12:08.526Z,44.4
2017-05-23T13:14:05.835Z,44.4
2017-05-23T13:16:05.742Z,44.5
2017-05-23T13:18:05.732Z,44.5
2017-05-23T13:20:08.452Z,44.6
2017-05-23T13:22:05.327Z,44.5
2017-05-23T13:24:05.343Z,44.6
2017-05-23T13:26:05.118Z,44.4
2017-05-23T13:28:10.846Z,44.4
2017-05-23T13:30:05.791Z,44.5
2017-05-23T13:32:05.514Z,44.6
2017-05-23T13:34:05.961Z,44.5
2017-05-23T13:36:06.961Z,44.5
2017-05-23T13:38:12.655Z,44.7
2017-05-23T13:40:05.365Z,44.7
2017-05-23T13:42:05.334Z,44.7
2017-05-23T13:44:05.107Z,44.8
2017-05-23T13:46:08.359Z,44.8
2017-05-23T13:48:05.193Z,44.6
2017-05-23T13:50:05.907Z,44.9
2017-05-23T13:52:05.619Z,44.9
2017-05-23T13:54:05.908Z,44.9
2017-05-23T13:56:08.259Z,44.9
2017-05-23T13:58:06.069Z,44.9
2017-05-23T14:00:05.989Z,44.8
2017-05-23T14:02:05.677Z,44.8
2017-05-23T14:04:06.445Z,44.9
2017-05-23T14:06:05.511Z,44.9
2017-05-23T14:08:05.302Z,44.9
2017-05-23T14:10:05.009Z,45
2017-05-23T14:12:05.858Z,45
2017-05-23T14:14:07.585Z,45.2
2017-05-23T14:16:05.597Z,45.2
2017-05-23T14:18:06.177Z,45.2
2017-05-23T14:20:07.888Z,45.3
2017-05-23T14:22:06.836Z,45.3
2017-05-23T14:24:10.777Z,45.4
2017-05-23T14:26:08.027Z,45.6
2017-05-23T14:28:05.746Z,45.6
2017-05-23T14:30:05.485Z,45.9
2017-05-23T14:32:05.402Z,46.1
2017-05-23T14:34:06.709Z,45.8
2017-05-23T14:36:06.881Z,46.1
2017-05-23T14:38:05.843Z,46.1
2017-05-23T14:40:07.560Z,46.1
2017-05-23T14:42:08.845Z,46.5
2017-05-23T14:44:05.788Z,46.5
2017-05-23T14:46:05.481Z,47.3
2017-05-23T14:48:05.374Z,46.8
2017-05-23T14:50:05.059Z,46.9
2017-05-23T14:52:05.829Z,46.9
2017-05-23T14:54:05.394Z,46.6
2017-05-23T14:56:05.074Z,46.9
2017-05-23T14:58:08.404Z,46
2017-05-23T15:00:05.166Z,46
2017-05-23T15:02:06.056Z,46.2
2017-05-23T15:04:05.780Z,46.5
2017-05-23T15:06:05.626Z,46.2
2017-05-23T15:08:05.320Z,46.2
2017-05-23T15:10:05.016Z,46.2
2017-05-23T15:12:05.691Z,46.1
2017-05-23T15:14:05.406Z,45.5
2017-05-23T15:16:05.192Z,45.7
2017-05-23T15:18:05.434Z,45.4
2017-05-23T15:20:05.278Z,45.4
2017-05-23T15:22:06.443Z,45.3
2017-05-23T15:24:07.258Z,45.1
2017-05-23T15:26:05.190Z,45.3
2017-05-23T15:28:07.643Z,45.1
2017-05-23T15:30:10.407Z,45.1
2017-05-23T15:32:07.774Z,45.1
2017-05-23T15:34:05.654Z,45.1
2017-05-23T15:36:05.696Z,45.1
2017-05-23T15:38:07.936Z,45.1
2017-05-23T15:40:05.719Z,45
2017-05-23T15:42:05.489Z,45
2017-05-23T15:44:07.915Z,44.8
2017-05-23T15:46:05.616Z,44.8
2017-05-23T15:48:05.624Z,44.9
2017-05-23T15:50:05.384Z,44.3
2017-05-23T15:52:05.115Z,45
2017-05-23T15:54:06.922Z,45.3
2017-05-23T15:56:10.945Z,44.8
2017-05-23T15:58:05.584Z,44.8
2017-05-23T16:00:05.554Z,44.9
2017-05-23T16:02:05.464Z,45.2
2017-05-23T16:04:05.262Z,45.2
2017-05-23T16:06:06.373Z,45.1
2017-05-23T16:08:05.137Z,45
2017-05-23T16:10:05.867Z,45.5
2017-05-23T16:12:05.759Z,45.1
2017-05-23T16:14:23.138Z,45
2017-05-23T16:16:05.922Z,45
2017-05-23T16:18:08.445Z,44.5
2017-05-23T16:20:05.199Z,44.5
2017-05-23T16:22:05.907Z,44.9
2017-05-23T16:24:05.763Z,44.8
2017-05-23T16:26:05.485Z,44.6
2017-05-23T16:28:05.730Z,44.4
2017-05-23T16:30:05.826Z,44.9
2017-05-23T16:32:05.724Z,44.8
2017-05-23T16:34:05.696Z,44.3
2017-05-23T16:36:05.795Z,44.3
2017-05-23T16:38:05.698Z,44.1
2017-05-23T16:40:08.078Z,44.1
2017-05-23T16:42:06.157Z,44.1
2017-05-23T16:44:08.463Z,44.1
2017-05-23T16:46:07.945Z,43.9
2017-05-23T16:48:05.683Z,43.8
2017-05-23T16:50:10.400Z,43.1
2017-05-23T16:52:05.107Z,43.1
2017-05-23T16:54:11.059Z,43.5
2017-05-23T16:56:05.862Z,43.5
2017-05-23T16:58:05.561Z,43.4
2017-05-23T17:00:10.327Z,43.5
2017-05-23T17:02:05.031Z,43.6
2017-05-23T17:04:05.729Z,43.4
2017-05-23T17:06:05.482Z,43.3
2017-05-23T17:08:06.168Z,43.4
2017-05-23T17:10:10.695Z,42.9
2017-05-23T17:12:06.081Z,42.9
2017-05-23T17:14:13.500Z,42.7
2017-05-23T17:16:05.986Z,42.7
2017-05-23T17:18:06.136Z,43
2017-05-23T17:20:05.933Z,42.8
2017-05-23T17:22:05.175Z,42.6
2017-05-23T17:24:05.507Z,42.4
2017-05-23T17:26:05.271Z,42.9
2017-05-23T17:28:08.696Z,42.8
2017-05-23T17:30:10.705Z,42.9
2017-05-23T17:32:07.994Z,43.2
2017-05-23T17:34:05.696Z,43.2
2017-05-23T17:36:05.813Z,43.4
2017-05-23T17:38:07.593Z,42.9
2017-05-23T17:40:05.793Z,42.8
2017-05-23T17:42:05.654Z,42.7
2017-05-23T17:44:05.920Z,42.7
2017-05-23T17:46:05.743Z,42.7
2017-05-23T17:48:05.457Z,42.6
2017-05-23T17:50:05.363Z,42.2
2017-05-23T17:52:05.143Z,42
2017-05-23T17:54:05.977Z,42
2017-05-23T17:56:05.881Z,42.1
2017-05-23T17:58:18.707Z,41.7
2017-05-23T18:00:05.429Z,41.7
2017-05-23T18:02:07.651Z,41.4
2017-05-23T18:04:08.061Z,41.8
2017-05-23T18:06:05.911Z,41.6
2017-05-23T18:08:05.189Z,41.5
2017-05-23T18:10:05.878Z,41.6
2017-05-23T18:12:05.251Z,41
2017-05-23T18:14:05.972Z,40.9
2017-05-23T18:16:05.673Z,40.3
2017-05-23T18:18:06.614Z,40.1
2017-05-23T18:20:08.466Z,40.1
2017-05-23T18:22:05.145Z,40.2
2017-05-23T18:24:05.907Z,40.5
2017-05-23T18:26:05.993Z,40.3
2017-05-23T18:28:06.691Z,40
2017-05-23T18:30:08.411Z,39.8
2017-05-23T18:32:05.167Z,39.9
2017-05-23T18:34:05.911Z,39.7
2017-05-23T18:36:05.872Z,40
2017-05-23T18:38:05.586Z,40.2
2017-05-23T18:40:07.855Z,39.7
2017-05-23T18:42:05.564Z,39.8
2017-05-23T18:44:05.239Z,39.2
2017-05-23T18:46:05.936Z,39
2017-05-23T18:48:08.284Z,38.6
2017-05-23T18:50:07.657Z,38.6
2017-05-23T18:52:05.354Z,38.6
2017-05-23T18:54:13.026Z,38.8
2017-05-23T18:56:08.297Z,38.8
2017-05-23T18:58:08.544Z,38.8
2017-05-23T19:00:15.389Z,39
2017-05-23T19:02:05.153Z,39
2017-05-23T19:04:08.393Z,38.7
2017-05-23T19:06:05.293Z,38.6
2017-05-23T19:08:05.977Z,38.8
2017-05-23T19:10:05.701Z,39.1
2017-05-23T19:12:05.998Z,39
2017-05-23T19:14:08.252Z,39.4
2017-05-23T19:16:05.974Z,39.4
2017-05-23T19:18:08.777Z,39.3
2017-05-23T19:20:08.067Z,39.1
2017-05-23T19:22:05.825Z,39.1
2017-05-23T19:24:05.199Z,39.4
2017-05-23T19:26:07.638Z,38.9
2017-05-23T19:28:06.599Z,39
2017-05-23T19:30:06.377Z,39.3
2017-05-23T19:32:05.092Z,39.1
2017-05-23T19:34:05.840Z,39.3
2017-05-23T19:36:10.800Z,39.4
2017-05-23T19:38:06.678Z,39.4
2017-05-23T19:40:10.463Z,39.2
2017-05-23T19:42:10.733Z,39.1
2017-05-23T19:44:05.440Z,38.6
2017-05-23T19:46:05.699Z,38.3
2017-05-23T19:48:10.538Z,38.6
2017-05-23T19:50:05.245Z,38.6
2017-05-23T19:52:06.031Z,38.6
2017-05-23T19:54:13.485Z,38.5
2017-05-23T19:56:05.250Z,38.5
2017-05-23T19:58:06.057Z,38.5
2017-05-23T20:00:08.752Z,38.5
2017-05-23T20:02:05.481Z,38.5
2017-05-23T20:04:05.203Z,38.6
2017-05-23T20:06:05.939Z,38.6
2017-05-23T20:08:05.347Z,38.8
2017-05-23T20:10:07.558Z,38.7
2017-05-23T20:12:07.879Z,38.6
2017-05-23T20:14:05.681Z,38.6
2017-05-23T20:16:05.436Z,38.5
2017-05-23T20:18:06.169Z,38.6
2017-05-23T20:20:05.890Z,38.8
2017-05-23T20:22:05.583Z,38.9
2017-05-23T20:24:05.342Z,38.7
2017-05-23T20:26:05.082Z,38.8
2017-05-23T20:28:05.302Z,38.6
2017-05-23T20:30:06.225Z,38.7
2017-05-23T20:32:06.008Z,38.9
2017-05-23T20:34:05.778Z,38.8
2017-05-23T20:36:08.186Z,38.8
2017-05-23T20:38:08.539Z,38.8
2017-05-23T20:40:05.444Z,38.8
2017-05-23T20:42:05.728Z,38.8
2017-05-23T20:44:07.952Z,38.7
2017-05-23T20:46:05.672Z,38.9
2017-05-23T20:48:06.355Z,38.9
2017-05-23T20:50:08.130Z,38.9
2017-05-23T20:52:05.787Z,38.7
2017-05-23T20:54:05.547Z,38.7
2017-05-23T20:56:05.381Z,38.8
2017-05-23T20:58:05.114Z,38.8
2017-05-23T21:00:05.836Z,38.8
2017-05-23T21:02:10.667Z,38.9
2017-05-23T21:04:12.971Z,38.8
2017-05-23T21:06:06.074Z,38.8
2017-05-23T21:08:10.842Z,38.8
2017-05-23T21:10:05.523Z,38.9
2017-05-23T21:12:10.813Z,39
2017-05-23T21:14:05.552Z,39
2017-05-23T21:16:05.350Z,39
2017-05-23T21:18:07.831Z,38.9
2017-05-23T21:20:05.987Z,38.8
2017-05-23T21:22:13.590Z,38.7
2017-05-23T21:24:05.522Z,38.7
2017-05-23T21:26:06.021Z,38.8
2017-05-23T21:28:05.749Z,38.8
2017-05-23T21:30:05.557Z,38.9
2017-05-23T21:32:05.256Z,39
2017-05-23T21:34:05.970Z,39
2017-05-23T21:36:05.965Z,39.1
2017-05-23T21:38:10.715Z,39
2017-05-23T21:40:05.518Z,39
2017-05-23T21:42:05.861Z,39.1
2017-05-23T21:44:08.472Z,39.3
2017-05-23T21:46:05.128Z,39.2
2017-05-23T21:48:08.357Z,39.1
2017-05-23T21:50:05.085Z,39.1
2017-05-23T21:52:05.317Z,39
2017-05-23T21:54:05.179Z,38.7
2017-05-23T21:56:05.887Z,38.8
2017-05-23T21:58:05.617Z,38.7
2017-05-23T22:00:05.538Z,39.1
2017-05-23T22:02:05.272Z,39.2
2017-05-23T22:04:05.488Z,39.5
2017-05-23T22:06:06.037Z,39.8
2017-05-23T22:08:05.752Z,40
2017-05-23T22:10:05.451Z,40.1
2017-05-23T22:12:05.861Z,40.4
2017-05-23T22:14:05.551Z,40.3
2017-05-23T22:16:05.272Z,40.7
2017-05-23T22:18:05.706Z,40.8
2017-05-23T22:20:05.979Z,40.8
2017-05-23T22:22:05.687Z,41.2
2017-05-23T22:24:05.467Z,41.3
2017-05-23T22:26:06.029Z,41.3
2017-05-23T22:28:05.730Z,41.4
2017-05-23T22:30:08.058Z,41.5
2017-05-23T22:32:05.951Z,41.5
2017-05-23T22:34:05.726Z,41.6
2017-05-23T22:36:05.847Z,41.5
2017-05-23T22:38:05.612Z,41.9
2017-05-23T22:40:05.302Z,41.7
2017-05-23T22:42:08.696Z,42
2017-05-23T22:44:05.460Z,41.7
2017-05-23T22:46:05.229Z,42
2017-05-23T22:48:06.067Z,42.1
2017-05-23T22:50:05.756Z,42.1
2017-05-23T22:52:08.002Z,42.1
2017-05-23T22:54:05.883Z,42.1
2017-05-23T22:56:05.544Z,42.2
2017-05-23T22:58:08.294Z,42.3
2017-05-23T23:00:06.192Z,42.3
2017-05-23T23:02:05.897Z,42.3
2017-05-23T23:04:05.747Z,42.3
2017-05-23T23:06:05.606Z,42.4
2017-05-23T23:08:05.865Z,42.4
2017-05-23T23:10:05.669Z,42.4
2017-05-23T23:12:05.414Z,42.4
2017-05-23T23:14:06.128Z,42.5
2017-05-23T23:16:05.912Z,42.7
2017-05-23T23:18:06.066Z,42.5
2017-05-23T23:20:05.911Z,42.7
2017-05-23T23:22:07.671Z,42.5
2017-05-23T23:24:05.583Z,42.5
2017-05-23T23:26:05.809Z,42.8
2017-05-23T23:28:05.506Z,42.8
2017-05-23T23:30:05.274Z,42.5
2017-05-23T23:32:05.028Z,42.8
2017-05-23T23:34:10.783Z,42.8
2017-05-23T23:36:05.654Z,42.8
2017-05-23T23:38:10.418Z,42.8
2017-05-23T23:40:05.244Z,42.8
2017-05-23T23:42:06.051Z,42.9
2017-05-23T23:44:05.756Z,42.9
2017-05-23T23:46:05.983Z,42.7
2017-05-23T23:48:05.826Z,42.9
2017-05-23T23:50:05.089Z,42.9
2017-05-23T23:52:06.029Z,42.9
2017-05-23T23:54:05.962Z,42.9
2017-05-23T23:56:05.661Z,43
2017-05-23T23:58:10.437Z,43
